Time;durP1;ratioP1;P1;durP2;ratioP2;P2;SDS_P1;SDS_P2;PMS_P1;PMS_P2;Temp;Humidity;BMP_temperature;BMP_pressure;BME280_temperature;BME280_humidity;BME280_pressure;Samples;Min_cycle;Max_cycle;Signal;HPM_P1;HPM_P2
2022/05/04 00:00:37;;;;;;;5.63;5.13;;;14.70;94.80;;;;;;6331721;28;20465;-67
2022/05/04 00:03:41;;;;;;;6.47;5.37;;;14.60;94.80;;;;;;6329542;28;20461;-67
2022/05/04 00:06:44;;;;;;;5.80;4.97;;;14.60;95.00;;;;;;6328871;28;20952;-67
2022/05/04 00:09:47;;;;;;;5.17;4.77;;;14.50;95.20;;;;;;6328472;28;20939;-67
2022/05/04 00:12:51;;;;;;;6.53;5.80;;;14.40;95.30;;;;;;6329898;28;20487;-68
2022/05/04 00:15:54;;;;;;;5.87;5.27;;;14.40;95.50;;;;;;6329438;28;20479;-68
2022/05/04 00:18:59;;;;;;;5.53;4.80;;;14.40;95.50;;;;;;6332327;28;20472;-67
2022/05/04 00:22:02;;;;;;;5.97;5.47;;;14.30;95.60;;;;;;6328596;28;20476;-67
2022/05/04 00:25:06;;;;;;;5.20;4.80;;;14.30;95.80;;;;;;6288274;22;20474;-68
2022/05/04 00:28:09;;;;;;;5.27;4.87;;;14.30;95.90;;;;;;6282128;28;20473;-67
2022/05/04 00:31:12;;;;;;;5.67;5.27;;;14.20;96.40;;;;;;6280722;28;20470;-67
2022/05/04 00:34:17;;;;;;;5.33;4.93;;;14.20;96.20;;;;;;6280011;28;20489;-67
2022/05/04 00:37:20;;;;;;;6.23;5.77;;;14.20;96.50;;;;;;6279190;28;20966;-68
2022/05/04 00:40:23;;;;;;;6.07;5.47;;;14.20;96.50;;;;;;6279234;28;20466;-67
2022/05/04 00:43:27;;;;;;;5.77;5.17;;;14.00;96.60;;;;;;6279431;28;20966;-67
2022/05/04 00:46:30;;;;;;;5.77;5.27;;;14.00;97.00;;;;;;6278966;28;20985;-67
2022/05/04 00:49:35;;;;;;;5.63;5.23;;;14.00;97.10;;;;;;6278902;28;20474;-67
2022/05/04 00:52:42;;;;;;;5.53;5.03;;;13.90;97.30;;;;;;6279064;28;20474;-67
2022/05/04 00:55:46;;;;;;;5.47;5.07;;;13.90;97.50;;;;;;6274934;28;20977;-67
2022/05/04 00:58:55;;;;;;;5.87;5.27;;;13.90;97.70;;;;;;6278319;28;20504;-67
2022/05/04 01:01:59;;;;;;;6.57;5.57;;;13.80;97.80;;;;;;6277445;28;20477;-67
2022/05/04 01:05:05;;;;;;;5.67;5.27;;;13.70;97.90;;;;;;6277505;28;20471;-66
2022/05/04 01:08:08;;;;;;;6.23;5.37;;;13.80;98.10;;;;;;6277597;28;20966;-67
2022/05/04 01:11:11;;;;;;;5.80;5.10;;;13.70;98.20;;;;;;6277478;28;20474;-67
2022/05/04 01:14:16;;;;;;;5.70;5.30;;;13.60;98.40;;;;;;6277611;28;20474;-67
2022/05/04 01:17:19;;;;;;;5.77;5.37;;;13.60;98.40;;;;;;6277044;28;20973;-67
2022/05/04 01:20:24;;;;;;;6.87;6.20;;;13.60;98.40;;;;;;6277537;28;20470;-67
2022/05/04 01:23:29;;;;;;;6.03;5.53;;;13.50;98.60;;;;;;6277343;28;20564;-67
2022/05/04 01:26:32;;;;;;;6.37;5.87;;;13.50;98.70;;;;;;6278500;28;20474;-68
2022/05/04 01:29:36;;;;;;;6.47;5.40;;;13.50;98.90;;;;;;6280878;28;20474;-68
2022/05/04 01:32:39;;;;;;;6.33;5.33;;;13.50;98.80;;;;;;6277203;28;20470;-67
2022/05/04 01:35:42;;;;;;;5.90;5.30;;;13.40;98.90;;;;;;6276771;28;20462;-67
2022/05/04 01:38:46;;;;;;;5.80;5.30;;;13.40;98.90;;;;;;6279082;28;20817;-67
2022/05/04 01:42:05;;;;;;;6.17;5.13;;;13.40;99.00;;;;;;6279794;28;20957;-67
2022/05/04 01:45:09;;;;;;;6.50;5.90;;;13.30;99.10;;;;;;6279308;28;20497;-66
2022/05/04 01:48:13;;;;;;;5.40;4.97;;;13.30;99.10;;;;;;6278349;28;20465;-66
2022/05/04 01:51:16;;;;;;;7.23;5.47;;;13.30;99.30;;;;;;6276695;28;20455;-67
2022/05/04 01:54:21;;;;;;;6.10;5.50;;;13.20;99.30;;;;;;6276571;28;20462;-68
2022/05/04 01:57:24;;;;;;;5.47;5.07;;;13.20;99.30;;;;;;6278201;28;20451;-67
2022/05/04 02:00:28;;;;;;;6.60;6.10;;;13.10;99.40;;;;;;6273821;28;20446;-67
2022/05/04 02:03:31;;;;;;;7.17;5.17;;;13.00;99.50;;;;;;6277392;28;20474;-66
2022/05/04 02:06:34;;;;;;;5.03;4.63;;;13.00;99.50;;;;;;6281182;28;20459;-66
2022/05/04 02:09:40;;;;;;;6.00;5.40;;;12.90;99.60;;;;;;6281317;28;20454;-66
2022/05/04 02:12:44;;;;;;;5.53;5.13;;;12.90;99.70;;;;;;6281475;28;20471;-66
2022/05/04 02:15:47;;;;;;;5.70;5.30;;;12.90;99.80;;;;;;6278766;28;20466;-67
2022/05/04 02:18:50;;;;;;;5.13;4.73;;;12.80;99.80;;;;;;6278535;28;20474;-66
2022/05/04 02:21:53;;;;;;;5.10;4.60;;;12.80;99.90;;;;;;6278929;28;20477;-66
2022/05/04 02:24:58;;;;;;;5.80;5.20;;;12.70;99.90;;;;;;6276978;28;20481;-66
2022/05/04 02:28:01;;;;;;;8.30;6.30;;;12.70;99.90;;;;;;6278314;28;20470;-66
2022/05/04 02:31:04;;;;;;;7.20;5.57;;;12.70;99.90;;;;;;6277676;28;20561;-67
2022/05/04 02:34:07;;;;;;;6.30;5.73;;;12.70;99.90;;;;;;6277318;28;20475;-67
2022/05/04 02:40:32;;;;;;;6.00;5.60;;;12.60;99.90;;;;;;6277149;28;20466;-67
2022/05/04 02:43:35;;;;;;;5.83;5.33;;;12.50;99.90;;;;;;6277759;28;20970;-67
2022/05/04 02:46:39;;;;;;;6.20;5.60;;;12.50;99.90;;;;;;6277735;28;20482;-67
2022/05/04 02:49:42;;;;;;;5.80;5.30;;;12.50;99.90;;;;;;6277116;28;20501;-67
2022/05/04 02:52:45;;;;;;;5.80;5.40;;;12.40;99.90;;;;;;6276887;28;20470;-62
2022/05/04 02:55:49;;;;;;;6.20;5.60;;;12.30;99.90;;;;;;6274515;28;20784;-62
2022/05/04 02:58:53;;;;;;;6.10;5.60;;;12.30;99.90;;;;;;6275260;28;20477;-62
2022/05/04 03:05:17;;;;;;;6.10;5.10;;;12.30;99.90;;;;;;6266478;28;20966;-61
2022/05/04 03:08:21;;;;;;;5.77;5.27;;;12.20;99.90;;;;;;6277836;28;20493;-66
2022/05/04 03:14:46;;;;;;;7.40;5.47;;;12.20;99.90;;;;;;6277554;28;20487;-62
2022/05/04 03:17:49;;;;;;;7.33;6.20;;;12.10;99.90;;;;;;6274647;28;20489;-62
2022/05/04 03:20:52;;;;;;;8.10;5.80;;;12.10;99.90;;;;;;6274651;28;20515;-62
2022/05/04 03:23:56;;;;;;;6.20;5.70;;;12.10;99.90;;;;;;6274429;28;20478;-63
2022/05/04 03:27:00;;;;;;;6.77;6.17;;;12.00;99.90;;;;;;6279278;28;20512;-64
2022/05/04 03:30:05;;;;;;;8.90;6.20;;;12.00;99.90;;;;;;6283999;28;20474;-65
2022/05/04 03:33:08;;;;;;;6.40;5.80;;;12.00;99.90;;;;;;6287653;28;20474;-65
2022/05/04 03:36:11;;;;;;;7.93;6.00;;;12.00;99.90;;;;;;6286731;28;20477;-61
2022/05/04 03:39:15;;;;;;;5.83;5.33;;;11.90;99.90;;;;;;6286350;28;20466;-61
2022/05/04 03:42:19;;;;;;;6.90;6.20;;;11.90;99.90;;;;;;6281258;28;20450;-65
2022/05/04 03:45:22;;;;;;;6.63;6.03;;;11.90;99.90;;;;;;6281593;28;20485;-63
2022/05/04 03:48:26;;;;;;;5.53;5.03;;;11.80;99.90;;;;;;6280920;28;20985;-65
2022/05/04 03:51:29;;;;;;;6.43;5.60;;;11.80;99.90;;;;;;6281363;28;20449;-66
2022/05/04 03:54:32;;;;;;;6.80;5.77;;;11.80;99.90;;;;;;6280422;28;20948;-66
2022/05/04 03:57:36;;;;;;;8.13;6.00;;;11.80;99.90;;;;;;6279612;28;20466;-66
2022/05/04 04:00:39;;;;;;;5.77;5.27;;;11.90;99.90;;;;;;6281123;28;20500;-63
2022/05/04 04:03:42;;;;;;;8.37;6.17;;;11.90;99.90;;;;;;6279826;28;20480;-62
2022/05/04 04:06:46;;;;;;;7.83;6.53;;;11.90;99.90;;;;;;6278894;28;20462;-66
2022/05/04 04:09:49;;;;;;;7.40;5.67;;;12.00;99.90;;;;;;6280909;28;20465;-63
2022/05/04 04:12:54;;;;;;;5.23;4.83;;;11.90;99.90;;;;;;6280318;28;20567;-63
2022/05/04 04:15:57;;;;;;;7.33;6.53;;;12.00;99.90;;;;;;6280598;28;20473;-66
2022/05/04 04:19:00;;;;;;;6.30;5.40;;;11.90;99.90;;;;;;6280104;28;20481;-67
2022/05/04 04:22:03;;;;;;;6.50;6.00;;;11.90;99.90;;;;;;6280404;28;20945;-62
2022/05/04 04:25:06;;;;;;;7.80;5.93;;;12.10;99.90;;;;;;6278424;28;20474;-62
2022/05/04 04:28:11;;;;;;;7.20;6.50;;;12.10;99.90;;;;;;6278249;28;20793;-67
2022/05/04 04:31:14;;;;;;;6.43;5.83;;;12.20;99.90;;;;;;6278309;28;20466;-63
2022/05/04 04:34:17;;;;;;;6.60;6.10;;;12.20;99.90;;;;;;6278064;28;20478;-63
2022/05/04 04:37:21;;;;;;;6.40;5.80;;;12.20;99.90;;;;;;6281687;28;20463;-63
2022/05/04 04:40:24;;;;;;;7.73;5.80;;;12.30;99.90;;;;;;6278705;28;20470;-62
2022/05/04 04:43:28;;;;;;;6.97;6.10;;;12.40;99.90;;;;;;6278021;28;20466;-62
2022/05/04 04:46:32;;;;;;;6.50;5.90;;;12.50;99.90;;;;;;6277951;28;20482;-66
2022/05/04 04:49:35;;;;;;;7.23;5.77;;;12.70;99.90;;;;;;6278285;28;20478;-67
2022/05/04 04:52:38;;;;;;;9.50;5.70;;;12.90;99.90;;;;;;6278225;28;20475;-66
2022/05/04 04:55:42;;;;;;;6.20;5.70;;;13.10;99.90;;;;;;6278465;28;20473;-62
2022/05/04 04:58:46;;;;;;;8.03;5.67;;;13.20;99.90;;;;;;6278131;28;20465;-62
2022/05/04 05:01:49;;;;;;;13.23;10.97;;;13.40;99.70;;;;;;6277525;28;20481;-63
2022/05/04 05:04:52;;;;;;;6.37;5.90;;;13.50;99.50;;;;;;6277292;28;20492;-62
2022/05/04 05:07:56;;;;;;;7.07;6.47;;;13.60;99.40;;;;;;6277370;28;20471;-63
2022/05/04 05:10:59;;;;;;;6.53;5.93;;;13.70;99.30;;;;;;6277285;28;20806;-63
2022/05/04 05:17:23;;;;;;;6.40;5.90;;;14.00;98.90;;;;;;6276845;28;20474;-63
2022/05/04 05:20:27;;;;;;;7.90;6.07;;;14.30;98.70;;;;;;6279364;28;20638;-67
2022/05/04 05:23:30;;;;;;;8.03;6.00;;;14.50;98.30;;;;;;6277214;28;20474;-66
2022/05/04 05:26:33;;;;;;;7.97;6.23;;;14.60;97.80;;;;;;6276809;28;20481;-63
2022/05/04 05:29:38;;;;;;;9.87;5.97;;;14.80;97.50;;;;;;6276902;28;20496;-63
2022/05/04 05:32:41;;;;;;;4.97;4.53;;;15.00;97.40;;;;;;6276394;28;20479;-62
2022/05/04 05:35:44;;;;;;;6.93;6.20;;;15.30;97.10;;;;;;6276750;28;20569;-62
2022/05/04 05:38:47;;;;;;;6.80;6.10;;;15.70;96.80;;;;;;6276198;28;20817;-62
2022/05/04 05:41:50;;;;;;;6.73;4.97;;;16.20;95.70;;;;;;6276633;28;20965;-62
2022/05/04 05:44:55;;;;;;;7.63;5.70;;;16.80;94.70;;;;;;6276093;28;20482;-63
2022/05/04 05:47:58;;;;;;;8.20;5.93;;;17.10;93.50;;;;;;6275415;28;21089;-62
2022/05/04 05:51:05;;;;;;;6.00;5.30;;;17.70;92.30;;;;;;6276323;28;20477;-66
2022/05/04 05:54:08;;;;;;;6.57;5.03;;;18.20;90.80;;;;;;6276055;28;20563;-66
2022/05/04 05:57:11;;;;;;;13.07;5.00;;;18.80;89.90;;;;;;6276368;28;20482;-66
2022/05/04 06:00:17;;;;;;;5.83;5.20;;;19.20;87.30;;;;;;6276810;28;20273;-65
2022/05/04 06:03:22;;;;;;;5.27;4.70;;;19.50;85.30;;;;;;6276896;28;20229;-66
2022/05/04 06:06:25;;;;;;;6.40;5.80;;;20.30;82.30;;;;;;6279540;28;20243;-63
2022/05/04 06:09:28;;;;;;;5.60;5.10;;;20.90;79.20;;;;;;6276239;28;20204;-66
2022/05/04 06:12:31;;;;;;;5.90;5.10;;;21.30;75.80;;;;;;6275707;28;20227;-66
2022/05/04 06:15:36;;;;;;;5.50;4.90;;;21.70;73.40;;;;;;6266943;28;20215;-66
2022/05/04 06:18:39;;;;;;;8.13;5.33;;;22.20;71.10;;;;;;6275749;28;20227;-63
2022/05/04 06:21:42;;;;;;;6.13;5.37;;;22.80;68.10;;;;;;6275794;28;20559;-63
2022/05/04 06:24:46;;;;;;;5.70;5.27;;;23.60;65.10;;;;;;6275163;28;20298;-63
2022/05/04 06:27:50;;;;;;;5.10;4.70;;;24.30;62.10;;;;;;6276155;28;20537;-67
2022/05/04 06:34:15;;;;;;;9.10;5.27;;;25.30;57.30;;;;;;6275277;28;20669;-64
2022/05/04 06:37:18;;;;;;;5.77;5.17;;;25.90;54.10;;;;;;6275393;28;20301;-67
2022/05/04 06:40:21;;;;;;;6.40;5.70;;;26.00;53.00;;;;;;6275462;28;20570;-63
2022/05/04 06:43:24;;;;;;;5.40;4.43;;;26.10;52.00;;;;;;6274791;28;20239;-63
2022/05/04 06:46:29;;;;;;;8.60;5.90;;;26.50;50.50;;;;;;6274894;28;20237;-63
2022/05/04 06:49:32;;;;;;;7.73;5.70;;;27.00;49.20;;;;;;6274996;28;20222;-64
2022/05/04 06:52:36;;;;;;;6.13;5.57;;;27.40;47.80;;;;;;6274719;28;20231;-64
2022/05/04 06:55:40;;;;;;;6.07;5.57;;;27.90;46.90;;;;;;6273856;28;20238;-64
2022/05/04 06:58:44;;;;;;;7.30;4.93;;;28.90;45.70;;;;;;6274384;28;20574;-69
2022/05/04 07:01:49;;;;;;;5.30;4.80;;;29.90;43.70;;;;;;6276533;28;20246;-68
2022/05/04 07:04:52;;;;;;;5.97;5.37;;;30.70;41.10;;;;;;6275037;28;20250;-64
2022/05/04 07:07:55;;;;;;;5.88;5.38;;;31.60;39.20;;;;;;6274527;28;20227;-67
2022/05/04 07:10:58;;;;;;;6.38;5.78;;;32.40;37.30;;;;;;6274914;28;20241;-63
2022/05/04 07:14:01;;;;;;;5.13;4.68;;;32.90;35.80;;;;;;6274916;28;20226;-64
2022/05/04 07:17:06;;;;;;;5.25;4.75;;;33.60;35.30;;;;;;6275867;28;20575;-64
2022/05/04 07:20:11;;;;;;;6.38;5.15;;;34.20;33.20;;;;;;6270027;28;20227;-65
2022/05/04 07:23:14;;;;;;;7.60;4.78;;;34.70;31.90;;;;;;6275541;28;20253;-64
2022/05/04 07:26:17;;;;;;;4.78;4.38;;;34.60;31.10;;;;;;6274472;28;20229;-64
2022/05/04 07:29:20;;;;;;;5.97;4.40;;;34.60;30.80;;;;;;6270777;28;20226;-63
2022/05/04 07:32:25;;;;;;;4.53;4.13;;;34.70;30.10;;;;;;6259631;28;20238;-63
2022/05/04 07:35:28;;;;;;;5.03;4.60;;;35.00;30.00;;;;;;6262927;28;20222;-64
2022/05/04 07:38:31;;;;;;;5.18;4.57;;;35.20;29.70;;;;;;6259423;28;20595;-64
2022/05/04 07:44:59;;;;;;;6.32;5.63;;;36.30;28.10;;;;;;6246425;28;20271;-64
2022/05/04 07:48:03;;;;;;;8.07;5.25;;;37.10;27.30;;;;;;6259130;28;20238;-65
2022/05/04 07:51:07;;;;;;;9.25;6.55;;;37.70;26.70;;;;;;6263828;28;20361;-65
2022/05/04 07:54:11;;;;;;;7.50;6.80;;;38.00;27.00;;;;;;6254864;28;20228;-64
2022/05/04 07:57:14;;;;;;;8.65;7.55;;;38.10;26.50;;;;;;6274146;28;20223;-64
2022/05/04 08:07:00;;;;;;;7.35;6.63;;;38.20;26.80;;;;;;6274704;28;20223;-63
2022/05/04 08:10:03;;;;;;;7.97;6.95;;;38.40;26.40;;;;;;6273868;28;20547;-65
2022/05/04 08:13:07;;;;;;;12.05;7.50;;;39.80;25.60;;;;;;6277357;28;20227;-63
2022/05/04 08:16:11;;;;;;;9.80;6.53;;;40.80;24.40;;;;;;6277768;28;20563;-64
2022/05/04 08:19:15;;;;;;;7.72;6.93;;;41.20;23.80;;;;;;6278474;28;20223;-64
2022/05/04 08:22:19;;;;;;;7.97;7.28;;;42.00;23.00;;;;;;6277707;28;20231;-63
2022/05/04 08:25:22;;;;;;;11.40;7.85;;;41.20;23.20;;;;;;6277358;28;20231;-64
2022/05/04 08:28:25;;;;;;;9.30;7.20;;;41.60;23.10;;;;;;6277469;28;20226;-64
2022/05/04 08:31:29;;;;;;;9.68;6.95;;;41.60;22.80;;;;;;6278326;28;20231;-64
2022/05/04 08:34:34;;;;;;;6.22;5.72;;;41.70;22.50;;;;;;6277579;28;20571;-63
2022/05/04 08:37:37;;;;;;;7.97;6.13;;;41.90;22.40;;;;;;6278049;28;20233;-63
2022/05/04 08:40:41;;;;;;;8.18;5.60;;;41.50;22.80;;;;;;6278081;28;20227;-64
2022/05/04 08:43:48;;;;;;;5.90;5.40;;;41.10;22.90;;;;;;6278335;28;20258;-64
2022/05/04 08:46:52;;;;;;;7.10;5.18;;;40.30;23.30;;;;;;6265866;28;20691;-66
2022/05/04 08:49:56;;;;;;;6.85;5.47;;;39.00;23.30;;;;;;6263917;28;20235;-66
2022/05/04 08:53:01;;;;;;;6.38;5.20;;;37.80;24.70;;;;;;6266344;28;20252;-64
2022/05/04 08:56:05;;;;;;;7.97;4.85;;;36.60;25.80;;;;;;6267769;28;20220;-65
2022/05/04 08:59:10;;;;;;;7.93;4.93;;;35.40;26.70;;;;;;6274361;28;20234;-68
2022/05/04 09:02:13;;;;;;;5.90;5.10;;;33.60;28.10;;;;;;6288028;28;20223;-70
2022/05/04 09:05:19;;;;;;;5.72;5.15;;;32.50;29.30;;;;;;6284672;28;20227;-66
2022/05/04 09:08:23;;;;;;;5.53;5.03;;;31.20;30.90;;;;;;6272467;28;20228;-67
2022/05/04 09:11:27;;;;;;;5.77;4.87;;;30.10;32.50;;;;;;6264592;28;20219;-67
2022/05/04 09:14:35;;;;;;;6.60;5.27;;;29.10;33.70;;;;;;6266138;28;20227;-67
2022/05/04 09:17:39;;;;;;;5.10;4.70;;;28.80;34.30;;;;;;6265151;28;20227;-68
2022/05/04 09:24:06;;;;;;;4.20;3.90;;;28.20;34.70;;;;;;6261920;28;20322;-66
2022/05/04 10:06:23;;;;;;;4.63;4.20;;;26.60;38.20;;;;;;6635661;23;20690;-64
2022/05/04 10:09:26;;;;;;;4.43;4.03;;;26.50;37.40;;;;;;6271903;28;20527;-60
2022/05/04 10:12:31;;;;;;;4.23;3.90;;;26.30;36.30;;;;;;6288845;28;20538;-60
2022/05/04 10:15:36;;;;;;;4.43;4.13;;;26.30;36.80;;;;;;6284985;28;20501;-61
2022/05/04 10:18:42;;;;;;;3.57;3.37;;;26.30;36.60;;;;;;6265383;28;20284;-63
2022/05/04 10:21:50;;;;;;;3.87;3.47;;;26.00;35.40;;;;;;6262351;28;20224;-62
2022/05/04 10:24:56;;;;;;;5.10;4.63;;;26.00;36.70;;;;;;6256171;28;20241;-62
2022/05/04 10:28:06;;;;;;;4.73;4.33;;;26.10;38.20;;;;;;6257101;28;20230;-62
2022/05/04 10:31:12;;;;;;;5.07;4.57;;;25.90;38.20;;;;;;6242538;28;20306;-62
2022/05/04 10:34:16;;;;;;;5.40;3.90;;;25.90;37.60;;;;;;6247915;28;20231;-64
2022/05/04 10:37:22;;;;;;;4.33;4.00;;;26.00;38.10;;;;;;6251347;28;20246;-63
2022/05/04 10:40:26;;;;;;;4.47;4.07;;;26.00;38.20;;;;;;6251750;28;20232;-65
2022/05/04 10:43:37;;;;;;;4.97;4.57;;;26.00;38.80;;;;;;6254101;28;20236;-64
2022/05/04 10:46:42;;;;;;;4.83;4.37;;;25.80;39.30;;;;;;6251713;28;20242;-63
2022/05/04 10:49:45;;;;;;;5.07;4.50;;;26.00;38.50;;;;;;6252047;28;20242;-64
2022/05/04 10:52:51;;;;;;;5.07;4.67;;;26.10;38.90;;;;;;6250559;28;20231;-65
2022/05/04 10:55:56;;;;;;;5.27;4.87;;;26.10;39.30;;;;;;6251246;28;20224;-68
2022/05/04 10:59:00;;;;;;;5.33;4.77;;;26.20;39.80;;;;;;6250705;28;20223;-65
2022/05/04 11:02:05;;;;;;;5.47;4.10;;;26.30;38.90;;;;;;6250407;28;20224;-65
2022/05/04 11:05:17;;;;;;;4.07;3.67;;;26.20;38.80;;;;;;6249655;28;20231;-63
2022/05/04 11:08:26;;;;;;;5.00;4.60;;;26.00;38.00;;;;;;6249629;28;20239;-64
2022/05/04 11:11:31;;;;;;;4.27;3.90;;;25.90;36.90;;;;;;6250301;28;20219;-63
2022/05/04 11:14:34;;;;;;;6.70;4.80;;;26.10;39.00;;;;;;6249707;28;20231;-63
2022/05/04 11:17:38;;;;;;;5.17;4.77;;;26.30;39.50;;;;;;6225151;28;20251;-62
2022/05/04 11:20:46;;;;;;;4.60;4.20;;;26.40;38.40;;;;;;6249102;28;20552;-61
2022/05/04 11:23:53;;;;;;;4.83;4.43;;;26.40;37.40;;;;;;6249374;28;20675;-62
2022/05/04 11:26:56;;;;;;;5.03;4.63;;;26.30;37.80;;;;;;6249593;28;20239;-64
2022/05/04 11:30:00;;;;;;;4.57;4.20;;;26.20;38.20;;;;;;6250898;28;20243;-61
2022/05/04 11:33:06;;;;;;;5.03;4.37;;;26.20;39.00;;;;;;6249576;28;20671;-61
2022/05/04 11:36:10;;;;;;;4.37;4.07;;;26.30;38.30;;;;;;6245181;28;20236;-61
2022/05/04 11:39:17;;;;;;;4.67;4.27;;;26.40;37.90;;;;;;6249850;28;20228;-65
2022/05/04 11:42:23;;;;;;;4.23;3.93;;;26.30;37.10;;;;;;6250351;28;20217;-62
2022/05/04 11:45:26;;;;;;;4.90;4.60;;;26.40;37.00;;;;;;6249871;28;20215;-62
2022/05/04 11:48:30;;;;;;;4.63;4.13;;;26.50;36.70;;;;;;6254117;28;20666;-63
2022/05/04 11:51:34;;;;;;;4.63;4.23;;;26.80;36.30;;;;;;6248155;28;20205;-62
2022/05/04 11:54:38;;;;;;;4.30;3.77;;;26.80;35.60;;;;;;6238868;28;20305;-62
2022/05/04 11:57:42;;;;;;;4.60;4.00;;;26.60;35.40;;;;;;6256733;28;20243;-63
2022/05/04 12:00:45;;;;;;;4.47;4.17;;;26.40;36.50;;;;;;6241299;28;20228;-62
2022/05/04 12:03:49;;;;;;;4.60;4.27;;;26.30;36.80;;;;;;6231097;28;20228;-61
2022/05/04 12:06:53;;;;;;;4.77;4.10;;;26.60;37.00;;;;;;6244614;28;20232;-63
2022/05/04 12:09:58;;;;;;;5.40;5.00;;;27.10;36.90;;;;;;6250891;28;20242;-63
2022/05/04 12:13:01;;;;;;;5.37;4.97;;;27.10;37.10;;;;;;6253803;28;20234;-62
2022/05/04 12:16:05;;;;;;;5.47;5.07;;;26.80;37.90;;;;;;6243524;28;20596;-63
2022/05/04 12:19:09;;;;;;;5.20;4.70;;;26.50;38.10;;;;;;6230228;28;20638;-62
2022/05/04 12:22:13;;;;;;;4.93;4.53;;;26.50;37.80;;;;;;6229087;28;20232;-62
2022/05/04 12:25:19;;;;;;;4.63;4.27;;;26.20;38.10;;;;;;6236876;28;20231;-61
2022/05/04 12:28:23;;;;;;;4.83;4.27;;;26.00;36.70;;;;;;6250586;28;20687;-61
2022/05/04 12:34:48;;;;;;;4.70;4.30;;;26.20;36.80;;;;;;6228727;28;20240;-62
2022/05/04 12:37:52;;;;;;;5.03;4.63;;;26.20;37.50;;;;;;6228516;28;20700;-64
2022/05/04 12:40:57;;;;;;;4.70;4.10;;;26.40;37.70;;;;;;6219129;28;20257;-65
2022/05/04 12:44:06;;;;;;;6.87;4.50;;;26.70;37.40;;;;;;6263809;28;20677;-65
2022/05/04 12:47:09;;;;;;;6.43;4.37;;;27.10;37.40;;;;;;6259163;28;20330;-65
2022/05/04 12:50:13;;;;;;;4.90;4.50;;;27.10;35.90;;;;;;6263962;28;20618;-64
2022/05/04 12:53:17;;;;;;;4.50;4.20;;;27.10;35.90;;;;;;6256436;28;20559;-65
2022/05/04 12:59:42;;;;;;;4.33;4.03;;;27.30;35.10;;;;;;6252458;28;20220;-65
2022/05/04 13:02:46;;;;;;;5.47;4.40;;;27.50;35.60;;;;;;6252806;28;20314;-65
2022/05/04 13:05:49;;;;;;;4.40;4.00;;;27.00;34.90;;;;;;6252665;28;20300;-65
2022/05/04 13:08:53;;;;;;;5.20;4.80;;;27.00;35.30;;;;;;6252058;28;20678;-66
2022/05/04 13:11:57;;;;;;;8.87;4.63;;;26.90;35.30;;;;;;6259092;28;20219;-66
2022/05/04 13:15:00;;;;;;;7.60;5.10;;;26.60;36.90;;;;;;6272872;28;20655;-67
2022/05/04 13:18:04;;;;;;;11.97;5.40;;;26.10;38.90;;;;;;6252880;28;20238;-67
2022/05/04 13:21:07;;;;;;;5.57;4.70;;;25.40;41.20;;;;;;6252651;28;20303;-70
2022/05/04 13:24:11;;;;;;;10.70;4.87;;;24.70;43.10;;;;;;6252327;28;20361;-68
2022/05/04 13:27:16;;;;;;;4.50;4.10;;;24.00;44.20;;;;;;6251421;28;20327;-66
2022/05/04 13:30:26;;;;;;;5.50;4.20;;;23.50;44.50;;;;;;6252283;28;20228;-64
2022/05/04 13:33:31;;;;;;;4.60;3.83;;;23.10;47.50;;;;;;6252265;28;20342;-64
2022/05/04 13:36:34;;;;;;;4.27;3.87;;;22.90;52.20;;;;;;6253577;28;20244;-66
2022/05/04 13:39:38;;;;;;;6.67;4.00;;;22.60;52.50;;;;;;6252440;28;20239;-64
2022/05/04 13:42:43;;;;;;;4.93;4.13;;;22.40;53.00;;;;;;6242331;28;20888;-61
2022/05/04 13:45:47;;;;;;;6.43;4.00;;;22.40;52.50;;;;;;6251370;28;20683;-63
2022/05/04 13:48:56;;;;;;;4.77;3.90;;;22.40;52.90;;;;;;6251314;28;20232;-62
2022/05/04 13:55:21;;;;;;;4.20;3.90;;;22.20;53.00;;;;;;6252499;28;20232;-62
2022/05/04 13:58:26;;;;;;;5.73;4.00;;;22.20;52.30;;;;;;6251977;28;20346;-63
2022/05/04 14:01:29;;;;;;;4.87;4.47;;;22.30;53.20;;;;;;6231483;28;20229;-62
2022/05/04 14:04:33;;;;;;;6.57;4.20;;;22.40;51.70;;;;;;6227893;28;20288;-62
2022/05/04 14:07:36;;;;;;;4.53;3.80;;;22.50;51.30;;;;;;6228019;28;20239;-63
2022/05/04 14:10:43;;;;;;;4.20;3.80;;;22.60;51.20;;;;;;6226452;28;20237;-64
2022/05/04 14:13:49;;;;;;;4.40;4.00;;;22.70;51.10;;;;;;6227178;28;20229;-64
2022/05/04 14:16:53;;;;;;;4.60;4.20;;;22.80;50.90;;;;;;6246603;28;20238;-64
2022/05/04 14:19:57;;;;;;;4.67;4.27;;;22.90;50.90;;;;;;6251602;28;20238;-62
2022/05/04 14:23:00;;;;;;;5.10;4.60;;;23.00;52.20;;;;;;6251293;28;20239;-63
2022/05/04 14:26:04;;;;;;;4.10;3.80;;;23.20;52.50;;;;;;6250916;28;20667;-64
2022/05/04 14:29:08;;;;;;;4.50;4.10;;;23.20;53.00;;;;;;6251361;28;20259;-64
2022/05/04 14:32:11;;;;;;;4.80;4.40;;;23.20;53.40;;;;;;6252938;28;20251;-63
2022/05/04 14:35:15;;;;;;;4.27;3.97;;;23.20;52.50;;;;;;6251608;28;20569;-62
2022/05/04 14:38:18;;;;;;;4.33;3.93;;;23.20;51.50;;;;;;6250873;28;20247;-64
2022/05/04 14:41:22;;;;;;;5.43;3.70;;;23.20;51.10;;;;;;6250895;28;20228;-64
2022/05/04 14:44:26;;;;;;;4.80;4.40;;;23.20;51.00;;;;;;6250911;28;20561;-65
2022/05/04 14:47:30;;;;;;;4.43;3.60;;;23.30;50.70;;;;;;6246391;28;20342;-64
2022/05/04 14:50:33;;;;;;;4.60;4.13;;;23.20;50.30;;;;;;6250349;28;20564;-64
2022/05/04 14:53:36;;;;;;;6.07;4.50;;;23.00;51.30;;;;;;6250694;28;20243;-64
2022/05/04 14:56:39;;;;;;;4.70;4.30;;;22.90;51.20;;;;;;6251218;28;20233;-65
2022/05/04 14:59:44;;;;;;;5.07;3.90;;;22.70;51.90;;;;;;6240347;28;20231;-65
2022/05/04 15:06:16;;;;;;;4.93;4.53;;;22.50;52.30;;;;;;6213376;28;20349;-64
2022/05/04 15:09:21;;;;;;;4.30;4.00;;;22.40;52.60;;;;;;6226324;28;20260;-66
2022/05/04 15:12:24;;;;;;;4.50;4.20;;;22.30;53.90;;;;;;6226094;28;20220;-66
2022/05/04 15:15:29;;;;;;;5.20;4.27;;;22.30;53.50;;;;;;6233262;28;20210;-65
2022/05/04 15:18:33;;;;;;;5.77;4.73;;;22.30;53.20;;;;;;6249946;28;20229;-65
2022/05/04 15:21:37;;;;;;;5.20;4.80;;;22.30;53.30;;;;;;6251618;28;20196;-66
2022/05/04 15:24:40;;;;;;;6.40;5.23;;;22.20;53.20;;;;;;6255772;28;20239;-64
2022/05/04 15:27:43;;;;;;;4.87;4.47;;;22.20;53.40;;;;;;6276176;28;20259;-66
2022/05/04 15:30:48;;;;;;;4.67;4.27;;;22.20;54.00;;;;;;6279228;28;20227;-66
2022/05/04 15:33:52;;;;;;;5.23;4.37;;;22.20;53.80;;;;;;6280688;28;20228;-66
2022/05/04 15:36:55;;;;;;;5.27;4.77;;;22.30;53.70;;;;;;6279586;28;20231;-65
2022/05/04 15:39:58;;;;;;;4.43;4.03;;;22.30;53.30;;;;;;6279535;28;20229;-65
2022/05/04 15:43:03;;;;;;;4.77;4.23;;;22.30;53.50;;;;;;6278041;28;20228;-65
2022/05/04 15:46:07;;;;;;;5.73;4.10;;;22.40;53.10;;;;;;6260613;28;20239;-64
2022/05/04 15:49:11;;;;;;;4.90;3.93;;;22.30;53.60;;;;;;6251936;28;20359;-64
2022/05/04 15:52:15;;;;;;;5.50;4.40;;;22.30;53.60;;;;;;6228985;28;20235;-65
2022/05/04 15:55:18;;;;;;;4.53;4.00;;;22.30;53.40;;;;;;6255876;28;20232;-65
2022/05/04 15:58:22;;;;;;;4.90;3.93;;;22.20;53.50;;;;;;6235822;28;20243;-66
2022/05/04 16:01:27;;;;;;;5.20;4.30;;;22.20;53.50;;;;;;6231366;28;20232;-67
2022/05/04 16:04:31;;;;;;;4.93;3.10;;;22.00;54.10;;;;;;6232569;28;20239;-65
2022/05/04 16:07:34;;;;;;;3.87;3.57;;;21.90;55.00;;;;;;6254921;28;20240;-65
2022/05/04 16:10:37;;;;;;;5.13;4.30;;;21.90;54.80;;;;;;6256876;28;20232;-65
2022/05/04 16:13:40;;;;;;;3.83;3.53;;;21.70;55.50;;;;;;6256034;28;20250;-65
2022/05/04 16:23:22;;;;;;;4.43;4.03;;;21.10;57.80;;;;;;6252702;28;20244;-65
2022/05/04 16:26:26;;;;;;;4.27;3.87;;;20.90;59.00;;;;;;6268764;28;20219;-65
2022/05/04 16:29:29;;;;;;;5.37;4.63;;;20.70;58.80;;;;;;6264868;28;20221;-65
2022/05/04 16:32:33;;;;;;;4.00;3.40;;;20.60;60.00;;;;;;6253981;28;20585;-66
2022/05/04 16:35:36;;;;;;;4.20;3.90;;;20.50;60.70;;;;;;6254543;28;20286;-66
2022/05/04 16:38:40;;;;;;;4.63;3.60;;;20.40;60.90;;;;;;6256962;28;20235;-65
2022/05/04 16:41:43;;;;;;;4.43;4.03;;;20.30;61.50;;;;;;6263544;28;20738;-65
2022/05/04 16:44:46;;;;;;;3.90;3.60;;;20.20;62.10;;;;;;6265521;28;20679;-66
2022/05/04 16:47:51;;;;;;;7.47;4.20;;;19.90;62.20;;;;;;6254916;28;20579;-64
2022/05/04 16:50:54;;;;;;;5.63;3.57;;;19.70;63.90;;;;;;6253531;28;20247;-64
2022/05/04 16:53:57;;;;;;;4.40;4.00;;;19.60;65.20;;;;;;6255330;28;20553;-64
2022/05/04 16:57:01;;;;;;;4.50;4.10;;;19.60;67.30;;;;;;6252772;28;20223;-62
2022/05/04 17:00:07;;;;;;;4.77;4.27;;;19.60;70.40;;;;;;6264260;28;20683;-62
2022/05/04 17:03:11;;;;;;;4.53;3.70;;;19.50;73.30;;;;;;6259502;28;20225;-61
2022/05/04 17:06:15;;;;;;;6.20;3.83;;;19.40;77.40;;;;;;6253475;28;20232;-63
2022/05/04 17:09:18;;;;;;;4.90;4.50;;;19.30;78.00;;;;;;6254247;28;20234;-62
2022/05/04 17:12:21;;;;;;;4.83;4.13;;;19.30;78.90;;;;;;6252984;28;20247;-62
2022/05/04 17:15:24;;;;;;;5.00;4.50;;;19.20;82.00;;;;;;6252661;28;20208;-62
2022/05/04 17:18:29;;;;;;;4.63;4.23;;;19.20;83.80;;;;;;6252347;28;20236;-62
2022/05/04 17:21:32;;;;;;;4.47;4.07;;;18.70;84.90;;;;;;6252123;28;20219;-63
2022/05/04 17:24:35;;;;;;;7.07;5.10;;;18.60;87.90;;;;;;6253733;28;20212;-62